Time;durP1;ratioP1;P1;durP2;ratioP2;P2;SDS_P1;SDS_P2;PMS_P1;PMS_P2;Temp;Humidity;BMP_temperature;BMP_pressure;BME280_temperature;BME280_humidity;BME280_pressure;Samples;Min_cycle;Max_cycle;Signal;HPM_P1;HPM_P2
2021/12/17 00:04:50;;;;;;;16.45;11.23;;;;;;;0.62;87.00;101474.53;4965705;28;20239;-86
2021/12/17 00:07:17;;;;;;;13.18;11.48;;;;;;;0.60;86.77;101485.72;4965113;28;20244;-86
2021/12/17 00:09:46;;;;;;;21.80;12.27;;;;;;;0.57;86.89;101478.78;4961344;28;20230;-86
2021/12/17 00:12:15;;;;;;;16.58;11.57;;;;;;;0.54;87.03;101483.06;4958201;28;20247;-86
2021/12/17 00:14:43;;;;;;;14.75;11.60;;;;;;;0.48;87.30;101470.94;4961959;28;20290;-86
2021/12/17 00:17:14;;;;;;;16.83;11.60;;;;;;;0.47;87.31;101469.22;4954638;28;20378;-87
2021/12/17 00:20:08;;;;;;;13.65;10.90;;;;;;;0.46;87.50;101474.38;4950222;28;20212;-87
2021/12/17 00:52:27;;;;;;;19.00;11.70;;;;;;;0.59;89.41;101458.97;4954721;28;20790;-86
2021/12/17 00:54:53;;;;;;;16.88;12.52;;;;;;;0.62;89.15;101456.41;4976106;28;20209;-87
2021/12/17 00:57:28;;;;;;;17.03;10.53;;;;;;;0.66;89.17;101454.72;4951803;28;20615;-85
2021/12/17 00:59:55;;;;;;;18.92;12.77;;;;;;;0.66;89.20;101458.16;4959785;28;20258;-86
2021/12/17 01:02:25;;;;;;;17.23;11.70;;;;;;;0.64;89.01;101462.44;4950633;28;20199;-87
2021/12/17 01:04:54;;;;;;;22.00;13.68;;;;;;;0.63;89.20;101462.44;4974340;28;20266;-87
2021/12/17 01:07:23;;;;;;;21.65;12.75;;;;;;;0.61;88.88;101461.56;4950524;28;20425;-86
2021/12/17 01:09:51;;;;;;;21.67;13.30;;;;;;;0.62;88.72;101452.94;4945397;28;20260;-87
2021/12/17 01:12:18;;;;;;;22.17;13.43;;;;;;;0.64;88.80;101454.69;4952424;28;20237;-87
2021/12/17 01:15:09;;;;;;;17.55;12.90;;;;;;;0.63;88.93;101452.13;4959393;28;20217;-86
2021/12/17 01:17:53;;;;;;;14.52;11.20;;;;;;;0.65;88.83;101443.50;4959063;28;20208;-85
2021/12/17 01:43:58;;;;;;;11.27;9.77;;;;;;;0.40;88.38;101423.50;4949917;28;20494;-87
2021/12/17 01:46:28;;;;;;;13.50;10.43;;;;;;;0.44;88.45;101427.84;4953722;28;20220;-87
2021/12/17 01:49:25;;;;;;;16.35;11.32;;;;;;;0.49;88.28;101427.84;4962258;28;20275;-87
2021/12/17 02:00:16;;;;;;;19.17;10.38;;;;;;;0.52;88.03;101439.09;4988864;28;20201;-86
2021/12/17 02:02:46;;;;;;;15.18;11.77;;;;;;;0.54;88.15;101432.22;4973171;28;20235;-86
2021/12/17 02:05:14;;;;;;;15.00;10.20;;;;;;;0.57;88.25;101432.25;4969577;28;20474;-87
2021/12/17 02:07:41;;;;;;;14.45;10.00;;;;;;;0.59;88.16;101427.94;4958259;28;20255;-87
2021/12/17 02:13:03;;;;;;;17.20;10.88;;;;;;;0.66;88.62;101426.25;4967433;28;20332;-87
2021/12/17 02:31:59;;;;;;;14.95;10.35;;;;;;;0.87;88.64;101407.41;4952013;28;20204;-86
2021/12/17 02:34:51;;;;;;;13.98;10.88;;;;;;;0.89;88.59;101397.91;4958616;28;20259;-87
2021/12/17 02:37:21;;;;;;;16.15;10.82;;;;;;;0.91;88.65;101396.22;4956786;28;20204;-86
2021/12/17 02:47:56;;;;;;;17.75;11.60;;;;;;;0.93;88.54;101384.16;4956297;28;20215;-86
2021/12/17 02:50:21;;;;;;;15.50;11.63;;;;;;;0.92;88.66;101382.44;4962578;28;20201;-88
2021/12/17 02:52:47;;;;;;;15.37;12.07;;;;;;;0.90;88.79;101381.56;4973623;28;20698;-88
2021/12/17 02:55:13;;;;;;;13.57;10.00;;;;;;;0.88;88.91;101370.34;4950288;28;20209;-88
2021/12/17 02:57:39;;;;;;;14.18;10.65;;;;;;;0.87;88.95;101366.88;4971026;28;20200;-85
2021/12/17 03:00:16;;;;;;;12.70;9.93;;;;;;;0.85;89.14;101366.00;4955080;28;20235;-87
2021/12/17 03:02:44;;;;;;;13.27;10.45;;;;;;;0.82;89.00;101355.66;4949524;28;20456;-86
2021/12/17 03:05:10;;;;;;;17.35;12.93;;;;;;;0.81;89.16;101347.88;4959874;28;20671;-86
2021/12/17 03:07:39;;;;;;;20.02;11.77;;;;;;;0.80;89.05;101351.31;4953491;28;20267;-86
2021/12/17 03:10:09;;;;;;;20.98;12.13;;;;;;;0.80;89.09;101361.69;4944149;28;20611;-85
2021/12/17 03:12:46;;;;;;;17.05;10.07;;;;;;;0.80;89.14;101356.50;4954683;28;20244;-86
2021/12/17 03:23:31;;;;;;;12.85;9.65;;;;;;;0.63;88.90;101365.03;4960282;28;20335;-87
2021/12/17 03:26:06;;;;;;;14.05;8.95;;;;;;;0.60;88.91;101364.19;4958287;28;20426;-87
2021/12/17 03:28:33;;;;;;;13.77;9.30;;;;;;;0.61;88.92;101365.88;4954658;28;20236;-88
2021/12/17 03:31:00;;;;;;;15.38;10.15;;;;;;;0.57;88.75;101369.34;4961698;28;20275;-87
2021/12/17 03:33:25;;;;;;;13.02;8.73;;;;;;;0.56;88.99;101368.44;4956471;28;20307;-86
2021/12/17 03:35:51;;;;;;;13.83;9.00;;;;;;;0.55;88.90;101371.03;4958903;28;20212;-87
2021/12/17 03:38:18;;;;;;;15.10;9.60;;;;;;;0.52;88.76;101371.88;4975654;28;20452;-86
2021/12/17 03:40:45;;;;;;;16.23;9.63;;;;;;;0.48;88.88;101364.94;4951107;28;20212;-87
2021/12/17 03:43:24;;;;;;;14.10;9.20;;;;;;;0.46;88.84;101374.44;4961130;28;20546;-87
2021/12/17 03:45:50;;;;;;;14.60;10.10;;;;;;;0.44;88.78;101376.16;4972673;28;20212;-87
2021/12/17 03:48:16;;;;;;;10.70;8.80;;;;;;;0.35;88.46;101376.97;4963935;28;20646;-85
2021/12/17 03:50:42;;;;;;;19.38;10.43;;;;;;;0.34;88.64;101376.94;4961985;28;20209;-86
2021/12/17 03:53:08;;;;;;;12.93;8.57;;;;;;;0.30;88.65;101381.22;4954841;28;20212;-86
2021/12/17 03:55:35;;;;;;;10.88;9.18;;;;;;;0.26;88.58;101384.63;4964898;28;20209;-86
2021/12/17 03:58:04;;;;;;;12.00;8.18;;;;;;;0.19;88.65;101388.91;4961293;28;20197;-86
2021/12/17 04:00:33;;;;;;;11.10;8.18;;;;;;;0.13;88.48;101394.00;4962327;28;20217;-86
2021/12/17 04:03:02;;;;;;;13.90;8.73;;;;;;;0.06;88.55;101389.66;4951296;28;20687;-86
2021/12/17 04:05:42;;;;;;;12.02;8.73;;;;;;;-0.01;88.77;101380.13;4950764;28;20216;-87
2021/12/17 04:08:10;;;;;;;10.68;7.15;;;;;;;-0.07;88.74;101386.09;4952569;28;20304;-86
2021/12/17 04:11:02;;;;;;;15.45;8.45;;;;;;;-0.12;88.64;101386.91;4950340;28;20240;-87
2021/12/17 04:13:33;;;;;;;10.88;9.00;;;;;;;-0.14;88.77;101381.72;4957017;28;20967;-87
2021/12/17 04:16:10;;;;;;;13.35;8.48;;;;;;;-0.12;88.90;101374.00;4947950;28;20215;-87
2021/12/17 04:18:41;;;;;;;11.30;8.45;;;;;;;-0.10;89.17;101380.06;4955485;28;20204;-88
2021/12/17 04:21:15;;;;;;;10.35;9.23;;;;;;;-0.08;88.84;101389.53;4979988;28;20212;-87
2021/12/17 04:23:45;;;;;;;10.93;9.73;;;;;;;-0.10;88.41;101391.25;4962056;28;20618;-87
2021/12/17 04:26:12;;;;;;;16.67;10.48;;;;;;;-0.10;88.56;101386.09;4956792;28;20212;-87
2021/12/17 04:28:43;;;;;;;17.15;10.05;;;;;;;-0.07;88.85;101385.25;4951698;28;20240;-87
2021/12/17 04:31:09;;;;;;;13.82;9.93;;;;;;;-0.05;88.94;101391.28;4957416;28;20208;-87
2021/12/17 04:33:39;;;;;;;11.30;8.55;;;;;;;0.00;88.97;101389.63;4953650;28;20208;-87
2021/12/17 04:36:06;;;;;;;12.70;9.15;;;;;;;0.05;89.12;101387.91;4966885;28;20283;-87
2021/12/17 04:38:35;;;;;;;12.80;10.15;;;;;;;0.07;88.69;101386.22;4955532;28;20726;-87
2021/12/17 04:41:36;;;;;;;16.95;9.98;;;;;;;0.10;88.71;101395.69;4960644;28;20212;-86
2021/12/17 04:44:05;;;;;;;13.27;9.00;;;;;;;0.11;88.55;101397.44;4960435;28;20259;-85
2021/12/17 04:46:38;;;;;;;15.75;9.90;;;;;;;0.12;88.96;101402.63;4967408;28;20267;-86
2021/12/17 04:57:55;;;;;;;12.60;8.80;;;;;;;0.10;88.85;101406.03;4921351;28;20224;-86
2021/12/17 05:00:25;;;;;;;12.73;10.23;;;;;;;0.10;89.04;101406.03;4959942;28;20212;-86
2021/12/17 05:03:01;;;;;;;12.05;8.27;;;;;;;0.10;88.86;101419.81;4961742;28;20223;-86
2021/12/17 05:05:30;;;;;;;8.85;6.65;;;;;;;0.10;88.72;101421.53;4961470;28;20208;-86
2021/12/17 05:08:04;;;;;;;9.05;8.18;;;;;;;0.05;88.74;101411.16;4969014;28;20236;-86
2021/12/17 05:19:01;;;;;;;8.32;6.85;;;;;;;-0.10;88.97;101431.72;4974659;28;20272;-87
2021/12/17 05:21:28;;;;;;;12.63;8.48;;;;;;;-0.11;89.04;101436.03;4972481;28;20200;-87
2021/12/17 05:23:54;;;;;;;17.50;8.10;;;;;;;-0.14;89.20;101429.94;4977799;28;20209;-84
2021/12/17 05:26:24;;;;;;;22.52;8.82;;;;;;;-0.18;89.08;101438.53;4994480;28;20188;-87
2021/12/17 05:28:55;;;;;;;8.25;6.63;;;;;;;-0.23;89.17;101436.75;4981153;28;20271;-85
2021/12/17 05:31:25;;;;;;;11.00;8.60;;;;;;;-0.19;89.23;101441.94;4949269;28;20528;-86
2021/12/17 05:33:54;;;;;;;30.52;9.02;;;;;;;-0.21;89.22;101441.94;4960480;28;20456;-86
2021/12/17 05:36:22;;;;;;;10.48;8.32;;;;;;;-0.25;88.93;101442.75;4957432;28;20228;-87
2021/12/17 05:39:00;;;;;;;20.15;9.07;;;;;;;-0.26;89.06;101443.59;4966155;28;20232;-87
2021/12/17 05:41:25;;;;;;;38.83;9.80;;;;;;;-0.26;89.24;101452.22;4943805;28;20647;-87
2021/12/17 05:44:04;;;;;;;14.32;9.20;;;;;;;-0.29;89.05;101451.31;4958987;28;20222;-86
2021/12/17 05:46:50;;;;;;;20.50;11.80;;;;;;;-0.32;88.92;101453.88;4976386;28;20224;-85
2021/12/17 05:49:20;;;;;;;11.07;7.47;;;;;;;-0.35;89.27;101470.19;4947264;28;20695;-86
2021/12/17 05:51:46;;;;;;;157.70;97.25;;;;;;;-0.37;89.03;101468.44;4949754;28;20204;-86
2021/12/17 05:54:12;;;;;;;36.03;18.38;;;;;;;-0.39;88.94;101465.84;4936669;28;20336;-86
2021/12/17 05:56:39;;;;;;;26.00;12.40;;;;;;;-0.42;88.94;101465.81;4917141;29;20291;-85
2021/12/17 05:59:05;;;;;;;14.88;11.10;;;;;;;-0.46;88.89;101474.34;4926901;29;20453;-86
2021/12/17 06:01:32;;;;;;;12.48;10.18;;;;;;;-0.46;89.33;101484.69;4913293;29;20276;-86
2021/12/17 06:03:58;;;;;;;12.23;8.65;;;;;;;-0.45;89.20;101476.09;4921321;29;20254;-87
2021/12/17 06:06:40;;;;;;;10.45;8.32;;;;;;;-0.45;89.37;101486.44;4937870;28;20221;-87
2021/12/17 06:09:08;;;;;;;10.13;8.07;;;;;;;-0.44;89.52;101490.72;4912200;29;20209;-86
2021/12/17 06:11:35;;;;;;;8.60;7.38;;;;;;;-0.41;89.34;101488.19;4919059;29;20426;-87
2021/12/17 06:14:02;;;;;;;15.63;8.93;;;;;;;-0.40;89.40;101491.66;4906793;29;20253;-86
2021/12/17 06:16:33;;;;;;;7.80;7.05;;;;;;;-0.40;89.14;101495.09;4921086;29;20206;-88
2021/12/17 06:19:02;;;;;;;14.15;9.00;;;;;;;-0.37;89.42;101496.84;4913940;29;20213;-87
2021/12/17 06:21:27;;;;;;;12.60;8.10;;;;;;;-0.35;89.31;101497.72;4918154;29;20305;-87
2021/12/17 06:23:53;;;;;;;16.40;11.83;;;;;;;-0.34;89.28;101499.47;4903477;29;20221;-88
2021/12/17 06:26:19;;;;;;;33.83;12.63;;;;;;;-0.36;89.13;101496.84;4933195;29;20217;-88
2021/12/17 06:28:50;;;;;;;16.80;11.60;;;;;;;-0.34;89.25;101494.31;4920998;29;20592;-88
2021/12/17 06:31:21;;;;;;;15.93;11.63;;;;;;;-0.31;89.06;101494.34;4912854;29;20552;-87
2021/12/17 06:33:47;;;;;;;14.90;11.65;;;;;;;-0.30;89.04;101502.09;4920297;29;20603;-87
2021/12/17 06:36:13;;;;;;;12.25;9.40;;;;;;;-0.33;88.92;101503.78;4906695;28;20205;-87
2021/12/17 06:38:39;;;;;;;10.68;9.25;;;;;;;-0.35;89.13;101496.03;4910128;29;20209;-87
2021/12/17 06:41:06;;;;;;;12.65;8.98;;;;;;;-0.35;89.18;101498.59;4909562;29;20380;-87
2021/12/17 06:43:37;;;;;;;11.57;8.20;;;;;;;-0.37;88.98;101497.72;4918703;29;20210;-88
2021/12/17 06:48:42;;;;;;;13.32;8.93;;;;;;;-0.43;89.17;101491.59;4912557;29;20205;-88
2021/12/17 07:06:01;;;;;;;18.38;12.25;;;;;;;-0.52;89.24;101515.59;4928351;29;20259;-88
2021/12/17 07:33:03;;;;;;;24.73;18.08;;;;;;;-0.05;89.69;101551.44;4929136;29;20487;-87
2021/12/17 07:35:44;;;;;;;21.42;16.08;;;;;;;-0.08;89.33;101548.81;4907891;29;20240;-87
2021/12/17 07:40:58;;;;;;;33.03;21.52;;;;;;;-0.08;89.46;101543.63;4919611;29;20252;-87
2021/12/17 07:43:36;;;;;;;22.38;14.40;;;;;;;-0.05;89.45;101543.69;4928996;29;20291;-87
2021/12/17 07:46:11;;;;;;;22.88;14.30;;;;;;;-0.03;89.25;101542.88;4921424;29;20272;-86
2021/12/17 07:48:41;;;;;;;24.98;17.73;;;;;;;-0.03;89.11;101544.56;4915202;29;20232;-88
2021/12/17 07:51:14;;;;;;;28.20;20.40;;;;;;;0.01;89.09;101543.75;4919331;29;20202;-87
2021/12/17 07:54:05;;;;;;;22.88;16.20;;;;;;;0.06;89.35;101547.25;4921473;29;20387;-88
2021/12/17 07:56:39;;;;;;;29.17;17.87;;;;;;;0.08;89.02;101549.84;4942268;28;20211;-88
2021/12/17 07:59:14;;;;;;;18.65;13.07;;;;;;;0.08;88.97;101544.69;4920477;29;20242;-88
2021/12/17 08:01:43;;;;;;;17.65;12.75;;;;;;;0.01;89.10;101542.91;4910921;29;20208;-88
2021/12/17 08:04:11;;;;;;;18.00;13.20;;;;;;;0.01;89.12;101542.91;4925548;29;20221;-88
2021/12/17 08:06:52;;;;;;;19.00;13.93;;;;;;;0.01;89.01;101548.94;4931527;29;20385;-88
2021/12/17 08:09:28;;;;;;;20.90;13.82;;;;;;;-0.01;89.46;101545.44;4943536;28;20212;-89
2021/12/17 08:11:56;;;;;;;14.80;10.23;;;;;;;-0.01;89.38;101551.47;4939378;28;20754;-88
2021/12/17 08:14:28;;;;;;;16.30;11.80;;;;;;;0.01;89.31;101555.81;4930937;29;20245;-87
2021/12/17 08:17:09;;;;;;;17.70;11.27;;;;;;;0.06;89.23;101557.59;4913694;29;20371;-86
2021/12/17 08:25:15;;;;;;;13.20;11.13;;;;;;;0.21;89.51;101549.97;4913466;29;20204;-88
2021/12/17 08:28:07;;;;;;;13.52;10.98;;;;;;;0.30;88.98;101553.50;4909791;29;20365;-87
2021/12/17 08:30:40;;;;;;;15.20;10.75;;;;;;;0.36;89.38;101551.00;4913141;29;20208;-87
2021/12/17 08:33:12;;;;;;;17.80;11.57;;;;;;;0.42;89.06;101551.06;4908878;29;20269;-87
2021/12/17 08:35:39;;;;;;;20.63;12.10;;;;;;;0.50;88.95;101558.88;4914457;29;20256;-88
2021/12/17 08:38:14;;;;;;;17.25;12.95;;;;;;;0.55;88.83;101558.06;4936740;29;20241;-89
2021/12/17 08:40:39;;;;;;;20.08;12.00;;;;;;;0.61;88.76;101560.69;4940670;28;20249;-88
2021/12/17 08:43:06;;;;;;;25.65;13.60;;;;;;;0.64;88.65;101565.88;4913062;29;20197;-88
2021/12/17 08:45:40;;;;;;;16.77;13.25;;;;;;;0.68;88.69;101564.22;4909748;29;20770;-88
2021/12/17 08:48:38;;;;;;;25.20;14.60;;;;;;;0.73;88.56;101567.72;4886464;29;20213;-87
2021/12/17 08:51:29;;;;;;;23.52;14.55;;;;;;;0.80;88.56;101571.19;4935249;29;20239;-88
2021/12/17 08:53:59;;;;;;;21.52;13.25;;;;;;;0.86;88.46;101576.41;4911530;29;20664;-88
2021/12/17 08:56:33;;;;;;;27.75;14.60;;;;;;;0.91;88.77;101579.91;4943356;28;20212;-87
2021/12/17 08:59:02;;;;;;;14.55;11.60;;;;;;;0.95;88.34;101579.09;4921638;29;20523;-87
2021/12/17 09:01:38;;;;;;;20.48;12.85;;;;;;;0.98;88.32;101581.69;4916733;29;20253;-88
2021/12/17 09:04:03;;;;;;;20.13;12.67;;;;;;;1.00;88.34;101590.34;4928222;29;20264;-89
2021/12/17 09:06:39;;;;;;;20.27;13.15;;;;;;;1.04;88.24;101602.44;4939620;29;20270;-88
2021/12/17 09:09:05;;;;;;;23.23;13.90;;;;;;;1.07;88.61;101599.88;4934600;29;20527;-88
2021/12/17 09:11:34;;;;;;;25.60;13.27;;;;;;;1.10;88.29;101605.06;4923003;29;20216;-87
2021/12/17 09:14:25;;;;;;;16.95;12.95;;;;;;;1.13;88.30;101603.34;4912433;29;20241;-88
2021/12/17 09:16:57;;;;;;;22.92;14.68;;;;;;;1.15;88.59;101599.94;4907716;29;20213;-87
2021/12/17 09:19:28;;;;;;;27.73;14.32;;;;;;;1.18;88.38;101604.25;4915016;29;20217;-88
2021/12/17 09:21:57;;;;;;;29.23;16.33;;;;;;;1.23;88.38;101607.75;4937259;29;20260;-87
2021/12/17 09:24:37;;;;;;;29.15;14.82;;;;;;;1.27;88.36;101604.31;4914458;29;20387;-86
2021/12/17 09:27:32;;;;;;;29.30;15.32;;;;;;;1.27;88.37;101612.06;4923306;29;20252;-87
2021/12/17 09:30:19;;;;;;;23.80;14.85;;;;;;;1.33;88.80;101609.56;4919711;29;20229;-87
2021/12/17 09:32:45;;;;;;;30.48;17.52;;;;;;;1.39;88.55;101609.56;4933548;29;20348;-87
2021/12/17 09:35:12;;;;;;;27.43;15.27;;;;;;;1.44;88.46;101605.28;4936084;29;20219;-88
2021/12/17 09:37:39;;;;;;;52.05;21.73;;;;;;;1.52;88.45;101610.53;4929405;29;21467;-88
2021/12/17 09:40:08;;;;;;;36.20;20.65;;;;;;;1.56;88.36;101609.66;4930209;29;20248;-87
2021/12/17 09:42:34;;;;;;;25.98;13.02;;;;;;;1.59;88.61;101614.00;4913168;29;20269;-88
2021/12/17 09:44:59;;;;;;;39.63;12.43;;;;;;;1.61;88.31;101620.91;4932756;29;20212;-87
2021/12/17 09:47:25;;;;;;;42.27;15.30;;;;;;;1.66;88.45;101615.78;4929062;29;20415;-88
2021/12/17 09:49:57;;;;;;;26.67;11.60;;;;;;;1.69;88.46;101616.66;4929258;29;20217;-89
2021/12/17 09:52:24;;;;;;;20.10;11.40;;;;;;;1.74;88.54;101617.53;4933267;29;20283;-87
2021/12/17 09:54:49;;;;;;;26.38;11.95;;;;;;;1.76;88.62;101608.06;4912035;29;20221;-88
2021/12/17 09:57:17;;;;;;;19.10;11.23;;;;;;;1.75;88.54;101610.63;4929997;29;20273;-88
2021/12/17 09:59:43;;;;;;;26.00;10.98;;;;;;;1.72;88.39;101600.25;4942826;28;20305;-88
2021/12/17 10:02:09;;;;;;;20.65;11.93;;;;;;;1.68;88.51;101603.72;4933174;29;20292;-88
2021/12/17 10:04:35;;;;;;;16.95;10.80;;;;;;;1.65;88.48;101594.19;4930053;29;20373;-89
2021/12/17 10:07:22;;;;;;;14.67;10.10;;;;;;;1.70;88.70;101596.78;4930587;29;20781;-88
2021/12/17 10:09:53;;;;;;;16.85;10.30;;;;;;;1.73;88.78;101591.66;4942073;29;20213;-88
2021/12/17 10:12:26;;;;;;;15.15;11.57;;;;;;;1.73;88.83;101587.31;4936135;29;20329;-87
2021/12/17 10:14:59;;;;;;;27.10;11.20;;;;;;;1.74;88.60;101593.38;4931712;29;20248;-88
2021/12/17 10:17:25;;;;;;;24.75;12.13;;;;;;;1.78;88.91;101595.09;4915382;29;20233;-87
2021/12/17 10:19:56;;;;;;;26.17;14.38;;;;;;;1.89;88.69;101608.09;4932534;29;20240;-88
2021/12/17 10:22:29;;;;;;;26.95;11.10;;;;;;;1.94;88.37;101589.09;4933590;29;20224;-87
2021/12/17 10:25:02;;;;;;;17.23;11.27;;;;;;;1.99;88.29;101584.81;4916392;29;20763;-88
2021/12/17 10:27:34;;;;;;;22.05;11.45;;;;;;;1.97;88.42;101571.00;4933994;29;20229;-89
2021/12/17 10:30:18;;;;;;;17.15;11.10;;;;;;;1.92;88.44;101577.91;4930199;29;20201;-90
2021/12/17 10:32:50;;;;;;;17.83;9.45;;;;;;;1.91;88.28;101576.16;4933846;29;20233;-88
2021/12/17 10:35:38;;;;;;;18.35;10.15;;;;;;;1.93;88.18;101568.41;4931713;29;20225;-86
2021/12/17 10:38:10;;;;;;;20.92;10.60;;;;;;;1.95;88.21;101562.34;4929905;29;20468;-87
2021/12/17 10:40:49;;;;;;;31.05;14.52;;;;;;;1.98;88.22;101570.13;4931553;29;20224;-87
2021/12/17 10:43:30;;;;;;;22.10;11.57;;;;;;;2.01;88.11;101563.25;4928538;29;20675;-88
2021/12/17 10:46:07;;;;;;;20.35;11.90;;;;;;;2.01;88.48;101564.09;4923499;29;20468;-86
2021/12/17 10:48:50;;;;;;;20.52;12.00;;;;;;;2.03;88.65;101559.78;4928402;29;20240;-86
2021/12/17 10:51:32;;;;;;;26.17;14.27;;;;;;;2.04;88.53;101566.69;4928862;29;20208;-86
2021/12/17 10:54:20;;;;;;;28.80;11.95;;;;;;;2.12;88.48;101564.97;4926094;29;20837;-86
2021/12/17 10:56:53;;;;;;;19.58;12.18;;;;;;;2.18;88.22;101559.81;4928293;29;20346;-86
2021/12/17 10:59:21;;;;;;;22.05;13.55;;;;;;;2.27;88.10;101555.50;4928166;29;20209;-87
2021/12/17 11:02:11;;;;;;;20.25;14.45;;;;;;;2.36;87.96;101553.81;4907765;29;20268;-87
2021/12/17 11:04:43;;;;;;;32.28;14.30;;;;;;;2.44;87.79;101552.06;4932817;29;20204;-86
2021/12/17 11:07:14;;;;;;;22.35;12.50;;;;;;;2.52;87.84;101546.03;4927004;29;20252;-86
2021/12/17 11:09:40;;;;;;;22.67;13.32;;;;;;;2.56;87.41;101546.03;4927390;29;20226;-87
2021/12/17 11:12:13;;;;;;;19.50;14.40;;;;;;;2.63;87.80;101546.91;4930309;28;20213;-86
2021/12/17 11:14:44;;;;;;;26.35;11.70;;;;;;;2.69;87.25;101551.22;4927270;29;20719;-87
2021/12/17 11:17:16;;;;;;;29.05;14.70;;;;;;;2.67;86.92;101548.63;4908269;29;20252;-82
2021/12/17 11:19:42;;;;;;;23.15;11.63;;;;;;;2.57;87.25;101541.72;4925959;29;20198;-83
2021/12/17 11:22:08;;;;;;;19.63;12.15;;;;;;;2.53;87.26;101539.97;4924802;28;20204;-82
2021/12/17 11:24:36;;;;;;;18.77;12.83;;;;;;;2.54;87.40;101547.78;4926014;29;20264;-83
2021/12/17 11:27:04;;;;;;;26.30;15.80;;;;;;;2.56;87.71;101535.66;4924705;29;20260;-83
2021/12/17 11:29:30;;;;;;;34.22;14.38;;;;;;;2.59;87.57;101527.00;4918032;29;20256;-83
2021/12/17 11:31:56;;;;;;;22.65;14.57;;;;;;;2.60;87.28;101521.81;4910524;29;20526;-83
2021/12/17 11:34:22;;;;;;;21.70;14.10;;;;;;;2.64;87.29;101513.16;4929592;29;20291;-83
2021/12/17 11:36:48;;;;;;;33.60;16.37;;;;;;;2.69;87.57;101518.34;4925664;29;20358;-83
2021/12/17 11:39:23;;;;;;;42.73;18.57;;;;;;;2.68;87.24;101526.16;4929038;29;20256;-82
2021/12/17 11:42:16;;;;;;;29.55;16.17;;;;;;;2.62;87.11;101527.03;4919197;29;20743;-83
2021/12/17 11:44:51;;;;;;;29.85;15.35;;;;;;;2.59;87.13;101535.69;4928659;29;20617;-83
2021/12/17 11:47:16;;;;;;;31.80;16.70;;;;;;;2.55;87.55;101538.25;4929534;29;20737;-83
2021/12/17 11:49:51;;;;;;;24.20;15.53;;;;;;;2.54;87.82;101533.91;4927732;29;20213;-83
2021/12/17 11:52:34;;;;;;;35.85;16.60;;;;;;;2.57;87.67;101531.34;4928170;29;20208;-84
2021/12/17 11:55:26;;;;;;;31.70;14.88;;;;;;;2.62;88.18;101535.66;4932494;29;20219;-83
2021/12/17 11:57:55;;;;;;;26.40;13.52;;;;;;;2.67;87.72;101522.69;4930684;29;20317;-83
2021/12/17 12:00:29;;;;;;;54.65;16.05;;;;;;;2.72;87.75;101526.13;4928858;29;20205;-83
2021/12/17 12:03:22;;;;;;;33.53;15.25;;;;;;;2.76;87.99;101527.88;4929843;29;20202;-82
2021/12/17 12:05:50;;;;;;;39.00;14.38;;;;;;;2.78;87.95;101515.78;4928409;29;20210;-82
2021/12/17 12:08:34;;;;;;;37.67;16.05;;;;;;;2.77;87.78;101519.22;4924031;29;20771;-82
2021/12/17 12:11:04;;;;;;;23.63;13.43;;;;;;;2.78;87.72;101517.47;4929959;28;20289;-82
2021/12/17 12:13:50;;;;;;;26.70;18.23;;;;;;;2.81;87.66;101512.31;4931207;29;20244;-82
2021/12/17 12:16:17;;;;;;;42.90;16.75;;;;;;;2.83;87.81;101507.97;4924698;29;20205;-82
2021/12/17 12:18:49;;;;;;;23.33;16.05;;;;;;;2.85;87.97;101509.69;4922634;29;20209;-82
2021/12/17 12:21:17;;;;;;;22.05;15.20;;;;;;;2.86;87.83;101508.84;4915384;29;20213;-81
2021/12/17 12:23:55;;;;;;;28.63;16.00;;;;;;;2.90;87.88;101508.84;4933163;29;20489;-82
2021/12/17 12:26:23;;;;;;;29.25;15.20;;;;;;;2.95;88.02;101513.16;4930161;29;20686;-83
2021/12/17 12:28:53;;;;;;;22.75;14.45;;;;;;;3.02;87.84;101517.44;4925859;29;20214;-82
2021/12/17 12:31:25;;;;;;;23.77;16.70;;;;;;;3.10;87.57;101520.88;4929057;29;20500;-82
2021/12/17 12:34:06;;;;;;;24.63;15.57;;;;;;;3.10;87.92;101520.03;4926999;29;20213;-82
2021/12/17 12:37:00;;;;;;;27.17;15.13;;;;;;;3.04;88.05;101517.44;4932463;29;20213;-82
2021/12/17 12:39:35;;;;;;;27.33;15.65;;;;;;;2.99;87.97;101524.38;4934337;29;20734;-83
2021/12/17 12:42:03;;;;;;;30.63;19.50;;;;;;;2.95;87.89;101520.06;4936649;29;20232;-83
2021/12/17 12:44:52;;;;;;;43.70;19.17;;;;;;;2.92;87.99;101517.47;4934517;29;20508;-83
2021/12/17 12:47:24;;;;;;;22.60;14.50;;;;;;;2.93;88.39;101527.84;4935195;29;20248;-81
2021/12/17 12:49:59;;;;;;;22.50;12.38;;;;;;;2.98;88.16;101527.84;4937559;29;20213;-82
2021/12/17 12:52:40;;;;;;;26.98;14.80;;;;;;;2.99;88.37;101522.66;4930810;29;20286;-82
2021/12/17 12:55:16;;;;;;;28.67;15.93;;;;;;;3.00;88.56;101527.00;4935592;29;20211;-81
2021/12/17 12:57:48;;;;;;;21.60;14.30;;;;;;;3.01;88.00;101517.47;4933363;29;20225;-82
2021/12/17 13:00:21;;;;;;;47.28;15.25;;;;;;;3.02;87.87;101520.03;4936002;29;20268;-81
2021/12/17 13:02:55;;;;;;;24.33;14.20;;;;;;;3.04;88.25;101522.66;4934250;29;20610;-82
2021/12/17 13:05:22;;;;;;;55.15;19.10;;;;;;;3.03;88.07;101521.78;4931120;29;20398;-81
2021/12/17 13:07:55;;;;;;;39.67;15.40;;;;;;;2.98;88.36;101522.66;4940084;29;20229;-82
2021/12/17 13:10:36;;;;;;;22.10;12.02;;;;;;;2.98;88.32;101520.94;4955320;28;20224;-81
2021/12/17 13:13:17;;;;;;;33.00;12.68;;;;;;;2.98;88.01;101520.94;4956880;28;20213;-81
2021/12/17 13:15:50;;;;;;;23.40;15.75;;;;;;;2.99;88.34;101514.84;4943525;29;20456;-81
2021/12/17 13:23:20;;;;;;;26.27;19.63;;;;;;;3.17;88.13;101513.97;4948350;29;20225;-83
2021/12/17 13:25:46;;;;;;;20.70;14.77;;;;;;;3.23;88.24;101498.34;4931218;29;20730;-82
2021/12/17 13:28:14;;;;;;;29.13;16.30;;;;;;;3.29;88.08;101497.47;4932043;29;20586;-82
2021/12/17 13:30:40;;;;;;;28.17;15.52;;;;;;;3.35;88.07;101501.78;4936027;29;20986;-82
2021/12/17 13:33:05;;;;;;;28.40;15.30;;;;;;;3.40;87.94;101498.28;4929553;29;20218;-82
2021/12/17 13:35:34;;;;;;;25.93;14.90;;;;;;;3.41;87.87;101489.66;4931219;29;20205;-82
2021/12/17 13:38:01;;;;;;;27.35;16.17;;;;;;;3.44;87.85;101491.38;4930210;29;20416;-83
2021/12/17 13:40:28;;;;;;;47.80;16.42;;;;;;;3.46;88.03;101487.03;4932590;29;20425;-83
2021/12/17 13:42:55;;;;;;;30.20;15.68;;;;;;;3.51;88.20;101493.03;4933331;29;20223;-83
2021/12/17 13:45:21;;;;;;;24.13;14.85;;;;;;;3.54;87.92;101491.31;4932054;29;20949;-83
2021/12/17 13:47:55;;;;;;;28.15;14.70;;;;;;;3.51;87.71;101495.66;4932787;29;20616;-83
2021/12/17 13:50:31;;;;;;;23.13;13.30;;;;;;;3.47;87.64;101496.53;4929843;29;20620;-83
2021/12/17 13:52:58;;;;;;;37.90;12.40;;;;;;;3.32;87.54;101497.44;4948575;28;20301;-83
2021/12/17 13:55:30;;;;;;;18.23;11.63;;;;;;;3.17;87.98;101503.56;4931202;29;20206;-82
2021/12/17 13:57:57;;;;;;;30.35;15.70;;;;;;;3.14;88.07;101503.59;4928258;28;20250;-83
2021/12/17 14:00:30;;;;;;;21.08;14.55;;;;;;;3.10;87.90;101497.50;4929006;29;20201;-83
2021/12/17 14:02:58;;;;;;;34.45;14.18;;;;;;;3.13;88.48;101507.03;4929590;29;20209;-83
2021/12/17 14:05:30;;;;;;;70.20;18.08;;;;;;;3.06;88.22;101511.38;4928965;29;20628;-83
2021/12/17 14:08:00;;;;;;;28.88;14.57;;;;;;;3.00;88.16;101514.00;4930772;29;20339;-83
2021/12/17 14:10:29;;;;;;;26.95;16.10;;;;;;;2.95;88.52;101504.50;4936478;28;20708;-83
2021/12/17 14:12:55;;;;;;;50.00;17.35;;;;;;;2.96;89.17;101506.22;4931600;29;20675;-83
2021/12/17 14:15:27;;;;;;;64.55;18.65;;;;;;;2.94;89.10;101501.00;4931273;29;20692;-83
2021/12/17 14:18:07;;;;;;;82.20;19.05;;;;;;;2.93;88.80;101509.69;4934013;29;20701;-82
2021/12/17 14:20:43;;;;;;;42.08;17.63;;;;;;;2.88;89.27;101509.69;4931991;29;20750;-83
2021/12/17 14:23:17;;;;;;;47.47;18.30;;;;;;;2.90;89.22;101499.31;4926575;29;20213;-83
2021/12/17 14:25:48;;;;;;;32.60;16.15;;;;;;;2.93;89.47;101504.50;4931760;29;20885;-83
2021/12/17 14:28:25;;;;;;;21.83;15.55;;;;;;;3.01;89.61;101507.06;4934006;29;20663;-82
2021/12/17 14:30:57;;;;;;;35.50;16.83;;;;;;;3.07;89.38;101515.69;4935379;28;20487;-81
2021/12/17 14:33:40;;;;;;;36.60;16.17;;;;;;;3.07;89.63;101512.25;4929790;28;20988;-81